Airfield :
LOGIN :

Register | Disclaimer

   EN    FR    IT 

 










Legend :    VFR   Marginal VFR   IFR   Intensive IFR   Very Intensive IFR
Visi :
Ceiling :
>= 8 km
>= 3000ft
5 to 8 km
1000 to 3000 ft
1500m to 5 km
500 to 1000 ft
800 to 1500m
200 to 500 ft
< 800m
< 200 ft
Symbols :   Thunderstorms  Fog  Heavy snow  Heavy precipitations  Wind > 20 kt
SIGMETs :     Misc.  Thunderstorms  Icing  Turbulence  Mountain Waves  Volcanic Ashes






- Airport Elevation : 1465 ft


LSMP - Payerne

CURRENT METAR :
  • 250520Z AUTO VRB01KT 9999NDV BKN100 11/10 Q1019 RMK

EXPIRED METARs :
  • 250450Z AUTO 00000KT 9999NDV OVC100 11/10 Q1019 RMK
  • 250420Z AUTO 00000KT 9999NDV FEW085 BKN098 10/10 Q1019 RMK
  • 250350Z AUTO 00000KT 9999NDV FEW060 BKN088 BKN100 10/10 Q1019 RMK
  • 250320Z AUTO 16002KT 9999NDV FEW049 BKN084 10/10 Q1019 RMK
  • 250250Z AUTO VRB02KT 9999NDV FEW052 BKN082 10/10 Q1019 RMK
  • 250220Z AUTO 21002KT 9999NDV SCT053 BKN067 BKN082 10/10 Q1019 RMK
  • 250120Z AUTO 24002KT 9999NDV FEW053 BKN084 10/10 Q1019 RMK
  • 250050Z AUTO VRB01KT 8000NDV SCT077 10/10 Q1019 RMK

Expired Forecast.



MET'MAP, your aeronautical weather chart ! - Copyright ORBIFLY December 2007 - Disclaimer

ORBIFLY MET'MAP TEAM :

Programming & Development : Alexandra Zaïnal
Original concept : Baudouin d'Aumeries
Technical & hardware support : Manuel Goepfert
Assistance : Marc-Olivier Méhu




SOURCES & CREDITS :

   NOAA